Time;durP1;ratioP1;P1;durP2;ratioP2;P2;SDS_P1;SDS_P2;PMS_P1;PMS_P2;Temp;Humidity;BMP_temperature;BMP_pressure;BME280_temperature;BME280_humidity;BME280_pressure;Samples;Min_cycle;Max_cycle;Signal;HPM_P1;HPM_P2
2021/07/05 00:02:44;;;;;;;7.60;6.90;;;20.60;99.10;;;;;;6349747;27;20561;-63
2021/07/05 00:05:48;;;;;;;6.77;6.17;;;20.60;99.10;;;;;;6348807;27;20236;-63
2021/07/05 00:08:51;;;;;;;7.20;6.60;;;20.60;99.00;;;;;;6348992;27;20225;-62
2021/07/05 00:11:54;;;;;;;7.33;6.63;;;20.60;99.20;;;;;;6365786;27;20677;-62
2021/07/05 00:14:59;;;;;;;8.33;7.60;;;20.50;99.30;;;;;;6374058;27;20224;-63
2021/07/05 00:18:04;;;;;;;8.40;7.70;;;20.60;99.20;;;;;;6374230;27;20224;-62
2021/07/05 00:21:07;;;;;;;8.20;7.50;;;20.60;99.20;;;;;;6374302;27;20232;-64
2021/07/05 00:24:10;;;;;;;6.90;6.30;;;20.60;99.20;;;;;;6370185;27;20227;-64
2021/07/05 00:27:13;;;;;;;7.20;6.70;;;20.70;99.20;;;;;;6371391;27;20225;-64
2021/07/05 00:30:21;;;;;;;7.60;6.97;;;20.70;99.20;;;;;;6372225;27;20250;-65
2021/07/05 00:33:24;;;;;;;7.90;7.10;;;20.80;99.30;;;;;;6374629;27;20665;-65
2021/07/05 00:36:27;;;;;;;8.07;7.37;;;20.80;99.20;;;;;;6376910;27;20567;-65
2021/07/05 00:39:31;;;;;;;7.30;6.70;;;20.70;99.30;;;;;;6378948;27;20225;-64
2021/07/05 00:42:34;;;;;;;7.67;6.97;;;20.80;99.30;;;;;;6378418;27;20224;-64
2021/07/05 00:45:39;;;;;;;7.80;7.00;;;20.80;99.20;;;;;;6378472;27;20237;-64
2021/07/05 00:48:42;;;;;;;8.40;7.70;;;20.70;99.20;;;;;;6377763;27;20240;-64
2021/07/05 00:51:46;;;;;;;7.47;6.77;;;20.70;99.20;;;;;;6378588;27;20304;-64
2021/07/05 00:54:49;;;;;;;7.77;7.03;;;20.70;99.20;;;;;;6378546;27;20669;-64
2021/07/05 00:57:53;;;;;;;8.50;7.17;;;20.70;99.30;;;;;;6364284;27;20229;-64
2021/07/05 01:00:57;;;;;;;8.73;7.83;;;20.60;99.30;;;;;;6378214;27;20229;-63
2021/07/05 01:04:01;;;;;;;8.00;7.30;;;20.50;99.20;;;;;;6378375;27;20322;-64
2021/07/05 01:07:04;;;;;;;8.53;7.70;;;20.50;99.40;;;;;;6379024;27;20239;-63
2021/07/05 01:10:08;;;;;;;8.27;7.57;;;20.50;99.50;;;;;;6378211;27;20228;-65
2021/07/05 01:13:11;;;;;;;8.17;7.47;;;20.40;99.50;;;;;;6378124;27;20229;-64
2021/07/05 01:16:16;;;;;;;9.00;8.10;;;20.30;99.70;;;;;;6377734;27;20235;-64
2021/07/05 01:19:20;;;;;;;8.73;8.03;;;20.30;99.70;;;;;;6378212;27;20294;-64
2021/07/05 01:22:24;;;;;;;7.40;6.80;;;20.30;99.90;;;;;;6378081;27;20580;-64
2021/07/05 01:25:30;;;;;;;8.40;7.70;;;20.40;99.90;;;;;;6377642;27;20317;-64
2021/07/05 01:28:33;;;;;;;9.60;8.80;;;20.30;99.90;;;;;;6378078;27;20225;-64
2021/07/05 01:31:37;;;;;;;10.90;9.40;;;20.20;99.90;;;;;;6377400;27;20232;-64
2021/07/05 01:34:41;;;;;;;9.80;9.00;;;20.20;99.90;;;;;;6377788;27;20379;-64
2021/07/05 01:37:45;;;;;;;9.97;9.07;;;20.10;99.90;;;;;;6377371;27;20246;-64
2021/07/05 01:40:54;;;;;;;9.77;8.97;;;20.00;99.90;;;;;;6377793;27;20220;-64
2021/07/05 01:43:57;;;;;;;10.20;9.20;;;19.90;99.90;;;;;;6376269;27;20229;-64
2021/07/05 01:47:00;;;;;;;9.50;8.70;;;19.90;99.90;;;;;;6377306;27;20224;-64
2021/07/05 01:50:04;;;;;;;9.00;8.10;;;19.90;99.90;;;;;;6377023;27;20228;-65
2021/07/05 01:53:09;;;;;;;10.17;8.90;;;20.00;99.90;;;;;;6377723;27;20232;-64
2021/07/05 01:56:12;;;;;;;10.00;9.10;;;20.00;99.90;;;;;;6376862;27;20225;-64
2021/07/05 01:59:15;;;;;;;10.17;9.17;;;20.00;99.90;;;;;;6376978;27;20232;-64
2021/07/05 02:02:18;;;;;;;9.83;9.03;;;20.00;99.90;;;;;;6373658;27;20535;-64
2021/07/05 02:05:22;;;;;;;9.83;8.97;;;19.90;99.90;;;;;;6377433;27;20229;-65
2021/07/05 02:08:27;;;;;;;9.87;8.60;;;19.90;99.90;;;;;;6377045;27;20659;-65
2021/07/05 02:11:30;;;;;;;10.60;9.70;;;19.90;99.90;;;;;;6376810;27;20532;-64
2021/07/05 02:14:33;;;;;;;9.90;9.00;;;19.90;99.90;;;;;;6376453;27;20237;-64
2021/07/05 02:17:36;;;;;;;10.80;8.60;;;19.90;99.90;;;;;;6376263;27;20627;-64
2021/07/05 02:20:40;;;;;;;9.10;8.23;;;19.90;99.90;;;;;;6376976;27;20306;-64
2021/07/05 02:23:44;;;;;;;10.77;9.77;;;19.90;99.90;;;;;;6376252;27;20220;-64
2021/07/05 02:26:48;;;;;;;10.13;8.47;;;19.90;99.90;;;;;;6376734;27;20235;-64
2021/07/05 02:29:51;;;;;;;10.10;9.10;;;19.90;99.90;;;;;;6376135;27;20224;-64
2021/07/05 02:32:56;;;;;;;10.90;9.60;;;19.90;99.90;;;;;;6376834;27;20229;-64
2021/07/05 02:36:00;;;;;;;10.60;9.40;;;19.90;99.90;;;;;;6375984;27;20669;-65
2021/07/05 02:39:06;;;;;;;9.20;8.27;;;19.90;99.90;;;;;;6376399;27;20221;-65
2021/07/05 02:42:09;;;;;;;12.30;10.10;;;19.90;99.90;;;;;;6376072;27;20580;-65
2021/07/05 02:45:15;;;;;;;9.87;8.97;;;19.90;99.90;;;;;;6376089;27;20232;-65
2021/07/05 02:48:21;;;;;;;10.00;9.10;;;19.90;99.90;;;;;;6376063;27;20228;-65
2021/07/05 02:51:24;;;;;;;9.67;8.87;;;19.80;99.90;;;;;;6375821;27;20589;-65
2021/07/05 02:54:28;;;;;;;11.67;10.60;;;19.90;99.90;;;;;;6375860;27;20696;-65
2021/07/05 02:57:31;;;;;;;10.93;9.63;;;19.70;99.90;;;;;;6375722;27;20225;-65
2021/07/05 03:00:37;;;;;;;9.70;8.80;;;19.70;99.90;;;;;;6375867;27;20224;-65
2021/07/05 03:03:40;;;;;;;9.10;8.40;;;19.60;99.90;;;;;;6370803;27;20224;-65
2021/07/05 03:06:43;;;;;;;11.53;10.43;;;19.50;99.90;;;;;;6375656;27;20666;-65
2021/07/05 03:09:48;;;;;;;10.63;9.73;;;19.50;99.90;;;;;;6375215;27;20538;-65
2021/07/05 03:12:52;;;;;;;10.57;9.47;;;19.60;99.90;;;;;;6375614;27;20558;-64
2021/07/05 03:15:55;;;;;;;10.87;9.87;;;19.50;99.90;;;;;;6374765;27;20232;-64
2021/07/05 03:18:59;;;;;;;9.30;8.40;;;19.50;99.90;;;;;;6375490;27;20248;-64
2021/07/05 03:22:02;;;;;;;10.80;9.67;;;19.50;99.90;;;;;;6375125;27;20221;-64
2021/07/05 03:25:10;;;;;;;9.67;8.80;;;19.60;99.90;;;;;;6375257;27;20232;-64
2021/07/05 03:28:15;;;;;;;11.10;10.10;;;19.70;99.90;;;;;;6375085;27;20565;-62
2021/07/05 03:31:18;;;;;;;11.27;10.17;;;19.70;99.90;;;;;;6375355;27;20260;-62
2021/07/05 03:34:22;;;;;;;11.23;10.20;;;19.60;99.90;;;;;;6374843;27;20466;-62
2021/07/05 03:37:25;;;;;;;9.70;8.90;;;19.40;99.90;;;;;;6374922;27;20221;-63
2021/07/05 03:40:32;;;;;;;10.30;9.40;;;19.40;99.90;;;;;;6375176;27;20232;-64
2021/07/05 03:43:35;;;;;;;11.13;10.13;;;19.40;99.90;;;;;;6375118;27;20239;-64
2021/07/05 03:46:39;;;;;;;10.63;9.63;;;19.50;99.90;;;;;;6374347;27;20247;-64
2021/07/05 03:49:42;;;;;;;11.47;10.27;;;19.50;99.90;;;;;;6374100;27;20228;-65
2021/07/05 03:52:46;;;;;;;9.70;8.80;;;19.50;99.90;;;;;;6374729;27;20240;-65
2021/07/05 03:55:51;;;;;;;10.80;9.90;;;19.50;99.90;;;;;;6374385;27;20229;-64
2021/07/05 03:58:54;;;;;;;9.97;8.97;;;19.40;99.90;;;;;;6374578;27;20235;-64
2021/07/05 04:01:58;;;;;;;10.27;9.40;;;19.20;99.90;;;;;;6374204;27;20713;-64
2021/07/05 04:05:01;;;;;;;11.00;10.10;;;19.30;99.90;;;;;;6374604;27;20237;-64
2021/07/05 04:08:05;;;;;;;11.60;9.30;;;19.30;99.90;;;;;;6371839;27;20229;-64
2021/07/05 04:11:10;;;;;;;10.80;9.80;;;19.40;99.90;;;;;;6379678;27;20544;-63
2021/07/05 04:14:13;;;;;;;11.13;10.13;;;19.40;99.90;;;;;;6378819;27;20239;-64
2021/07/05 04:17:16;;;;;;;10.60;9.67;;;19.40;99.90;;;;;;6379260;27;20224;-64
2021/07/05 04:20:22;;;;;;;10.70;9.70;;;19.50;99.90;;;;;;6379321;27;20668;-64
2021/07/05 04:23:25;;;;;;;10.73;9.73;;;19.60;99.90;;;;;;6379282;27;20185;-64
2021/07/05 04:26:31;;;;;;;10.20;9.20;;;19.70;99.90;;;;;;6379444;27;20229;-64
2021/07/05 04:29:35;;;;;;;11.17;10.17;;;19.70;99.90;;;;;;6378375;27;20531;-64
2021/07/05 04:32:38;;;;;;;11.60;10.60;;;19.80;99.90;;;;;;6375883;27;20225;-63
2021/07/05 04:35:42;;;;;;;10.10;9.20;;;19.80;99.90;;;;;;6352714;28;20256;-64
2021/07/05 04:38:45;;;;;;;11.27;10.03;;;19.90;99.90;;;;;;6353309;28;20229;-64
2021/07/05 04:41:50;;;;;;;11.80;10.70;;;20.00;99.90;;;;;;6353341;28;20513;-63
2021/07/05 04:44:53;;;;;;;11.20;10.30;;;20.00;99.90;;;;;;6352871;28;20682;-63
2021/07/05 04:47:57;;;;;;;11.23;10.20;;;20.00;99.90;;;;;;6357704;27;20252;-64
2021/07/05 04:51:01;;;;;;;12.10;11.00;;;20.10;99.90;;;;;;6371603;27;20571;-63
2021/07/05 04:54:04;;;;;;;11.80;10.70;;;20.10;99.90;;;;;;6351598;28;20252;-63
2021/07/05 04:57:10;;;;;;;10.33;9.33;;;20.10;99.90;;;;;;6351635;28;20232;-64
2021/07/05 05:00:17;;;;;;;9.97;9.10;;;20.20;99.90;;;;;;6351464;28;20567;-64
2021/07/05 05:03:33;;;;;;;10.20;8.77;;;20.30;99.90;;;;;;6363942;27;20225;-63
2021/07/05 05:06:37;;;;;;;12.53;11.33;;;20.40;99.90;;;;;;6366891;27;20232;-64
2021/07/05 05:09:40;;;;;;;10.87;9.73;;;20.50;99.90;;;;;;6348044;28;20229;-64
2021/07/05 05:12:45;;;;;;;11.90;10.80;;;20.50;99.90;;;;;;6352753;28;20230;-64
2021/07/05 05:15:49;;;;;;;10.17;9.00;;;20.50;99.90;;;;;;6364488;27;20235;-63
2021/07/05 05:18:52;;;;;;;12.10;10.90;;;20.60;99.90;;;;;;6361681;27;20674;-64
2021/07/05 05:21:55;;;;;;;10.93;9.83;;;20.70;99.90;;;;;;6351168;27;20225;-64
2021/07/05 05:24:58;;;;;;;11.30;10.20;;;20.60;99.90;;;;;;6350940;27;20229;-64
2021/07/05 05:28:03;;;;;;;11.03;10.00;;;20.70;99.90;;;;;;6350836;28;20705;-64
2021/07/05 05:31:06;;;;;;;11.03;10.07;;;20.80;99.90;;;;;;6366548;27;20691;-64
2021/07/05 05:34:09;;;;;;;10.57;9.40;;;20.90;99.90;;;;;;6361660;27;20816;-64
2021/07/05 05:37:13;;;;;;;10.40;9.50;;;20.90;99.90;;;;;;6351946;28;20221;-64
2021/07/05 05:40:16;;;;;;;9.37;8.53;;;21.00;99.90;;;;;;6352158;28;20666;-64
2021/07/05 05:43:21;;;;;;;10.43;9.33;;;21.00;99.90;;;;;;6352028;28;20691;-70
2021/07/05 05:46:25;;;;;;;10.30;9.40;;;21.10;99.90;;;;;;6351757;27;20245;-70
2021/07/05 05:49:28;;;;;;;9.37;8.57;;;21.30;99.90;;;;;;6351768;28;20229;-70
2021/07/05 05:52:31;;;;;;;10.20;9.40;;;21.30;99.90;;;;;;6351743;28;20236;-71
2021/07/05 05:55:34;;;;;;;10.30;9.30;;;21.40;99.90;;;;;;6351719;28;20229;-69
2021/07/05 05:58:40;;;;;;;10.00;9.10;;;21.40;99.90;;;;;;6351217;28;20229;-69
2021/07/05 06:01:49;;;;;;;9.50;8.60;;;21.50;99.90;;;;;;6351367;28;20573;-70
2021/07/05 06:04:52;;;;;;;10.43;9.50;;;21.70;99.90;;;;;;6351179;28;20233;-63
2021/07/05 06:07:56;;;;;;;12.07;9.60;;;21.80;99.90;;;;;;6351152;28;20221;-70
2021/07/05 06:10:59;;;;;;;9.63;8.70;;;21.80;99.90;;;;;;6351267;27;20315;-71
2021/07/05 06:14:04;;;;;;;9.63;8.70;;;21.80;99.90;;;;;;6341743;28;20248;-73
2021/07/05 06:17:07;;;;;;;8.20;7.50;;;22.00;99.90;;;;;;6351262;28;20225;-64
2021/07/05 06:20:12;;;;;;;8.70;7.70;;;22.30;99.90;;;;;;6350960;27;20253;-64
2021/07/05 06:23:36;;;;;;;8.10;7.30;;;22.70;99.90;;;;;;6350654;28;20222;-64
2021/07/05 06:26:39;;;;;;;8.57;7.20;;;23.00;99.90;;;;;;6350909;28;20233;-64
2021/07/05 06:29:44;;;;;;;8.10;7.40;;;23.60;99.90;;;;;;6350330;28;20693;-64
2021/07/05 06:32:47;;;;;;;7.23;6.63;;;23.70;99.90;;;;;;6350713;27;20531;-66
2021/07/05 06:35:51;;;;;;;7.83;6.80;;;23.80;99.50;;;;;;6350496;28;20249;-73
2021/07/05 06:38:55;;;;;;;3.23;2.93;;;23.70;99.30;;;;;;6351014;28;20225;-73
2021/07/05 06:41:58;;;;;;;2.70;2.50;;;23.70;97.20;;;;;;6350866;28;20221;-71
2021/07/05 06:45:03;;;;;;;9.47;6.40;;;23.50;95.40;;;;;;6350622;28;20229;-71
2021/07/05 06:48:07;;;;;;;15.67;12.73;;;23.60;95.80;;;;;;6350777;28;20225;-71
2021/07/05 06:51:18;;;;;;;31.50;23.10;;;23.90;95.70;;;;;;6350295;28;20282;-71
2021/07/05 06:54:21;;;;;;;25.70;21.27;;;24.60;96.00;;;;;;6350546;28;20251;-70
2021/07/05 06:57:32;;;;;;;4.97;4.40;;;25.90;93.30;;;;;;6350312;28;20221;-71
2021/07/05 07:00:37;;;;;;;3.30;3.00;;;26.70;90.30;;;;;;6350565;28;20225;-70
2021/07/05 07:03:40;;;;;;;3.30;2.73;;;26.90;85.60;;;;;;6350342;28;20235;-64
2021/07/05 07:06:48;;;;;;;6.17;3.60;;;26.60;80.10;;;;;;6350010;27;20289;-64
2021/07/05 07:09:51;;;;;;;3.50;2.20;;;26.40;79.70;;;;;;6349706;28;20232;-65
2021/07/05 07:12:55;;;;;;;5.43;3.23;;;26.50;80.70;;;;;;6349879;28;20229;-65
2021/07/05 07:16:21;;;;;;;3.03;2.17;;;26.70;82.20;;;;;;6344770;28;20244;-72
2021/07/05 07:19:24;;;;;;;2.70;2.50;;;27.00;79.30;;;;;;6349812;28;20257;-65
2021/07/05 07:22:29;;;;;;;2.93;2.10;;;27.00;77.80;;;;;;6349567;28;20225;-65
2021/07/05 07:25:32;;;;;;;2.80;2.47;;;27.10;77.40;;;;;;6349743;28;20240;-65
2021/07/05 07:28:36;;;;;;;2.33;2.13;;;27.10;76.80;;;;;;6349248;28;20232;-64
2021/07/05 07:31:40;;;;;;;4.90;4.50;;;27.10;75.00;;;;;;6349563;28;20550;-66
2021/07/05 07:34:44;;;;;;;3.00;2.80;;;27.00;75.90;;;;;;6349107;28;20322;-64
2021/07/05 07:37:49;;;;;;;6.83;3.10;;;27.00;75.30;;;;;;6349537;28;20709;-73
2021/07/05 07:40:54;;;;;;;5.47;3.40;;;27.20;75.00;;;;;;6350293;28;20225;-71
2021/07/05 07:43:58;;;;;;;2.87;2.57;;;27.30;73.80;;;;;;6349157;28;20224;-66
2021/07/05 07:47:03;;;;;;;20.10;14.60;;;27.30;73.90;;;;;;6349376;28;20243;-66
2021/07/05 07:50:08;;;;;;;9.60;8.63;;;27.50;74.20;;;;;;6349151;28;20243;-64
2021/07/05 07:53:11;;;;;;;12.03;10.60;;;28.00;72.40;;;;;;6349072;28;20240;-64
2021/07/05 07:56:15;;;;;;;3.83;2.70;;;29.30;68.50;;;;;;6348928;28;20709;-66
2021/07/05 07:59:18;;;;;;;3.90;3.13;;;30.50;62.50;;;;;;6348718;28;20225;-66
2021/07/05 08:02:22;;;;;;;11.23;10.05;;;31.20;58.30;;;;;;6348641;28;20570;-65
2021/07/05 08:05:26;;;;;;;16.35;14.88;;;31.70;57.60;;;;;;6349480;28;20308;-71
2021/07/05 08:08:29;;;;;;;28.52;26.05;;;32.10;56.20;;;;;;6349088;28;20235;-73
2021/07/05 08:11:32;;;;;;;3.47;2.35;;;32.40;52.40;;;;;;6349272;28;20215;-71
2021/07/05 08:14:36;;;;;;;1.63;1.30;;;32.10;51.00;;;;;;6348132;28;20243;-66
2021/07/05 08:17:41;;;;;;;4.57;3.28;;;31.70;50.20;;;;;;6334272;28;20201;-66
2021/07/05 08:20:45;;;;;;;4.18;1.10;;;31.10;52.70;;;;;;6348572;28;20229;-66
2021/07/05 08:23:48;;;;;;;55.60;45.40;;;30.80;49.60;;;;;;6352571;27;20227;-67
2021/07/05 08:26:51;;;;;;;7.57;6.80;;;30.30;50.50;;;;;;6366345;27;20217;-66
2021/07/05 08:29:56;;;;;;;26.33;21.30;;;30.00;51.00;;;;;;6341993;28;20224;-65
2021/07/05 08:33:01;;;;;;;2.93;1.77;;;29.80;50.90;;;;;;6353507;27;20227;-70
2021/07/05 08:36:05;;;;;;;3.03;2.37;;;29.60;51.10;;;;;;6363865;27;20682;-68
2021/07/05 08:39:09;;;;;;;0.90;0.63;;;29.30;51.70;;;;;;6348642;28;20561;-70
2021/07/05 08:42:14;;;;;;;1.50;1.27;;;29.20;52.10;;;;;;6348238;28;20232;-69
2021/07/05 08:45:17;;;;;;;2.47;0.87;;;29.30;51.70;;;;;;6351382;27;20225;-76
2021/07/05 08:48:23;;;;;;;1.77;0.80;;;29.30;51.70;;;;;;6342217;27;20236;-76
2021/07/05 08:51:27;;;;;;;2.50;1.40;;;29.30;51.90;;;;;;6323218;28;20230;-74
2021/07/05 08:54:30;;;;;;;12.20;9.67;;;29.20;52.80;;;;;;6338392;28;20233;-73
2021/07/05 08:57:38;;;;;;;3.83;3.43;;;29.20;54.40;;;;;;6352941;28;20235;-74
2021/07/05 09:00:41;;;;;;;1.30;1.10;;;29.20;53.20;;;;;;6364502;27;20224;-75
2021/07/05 09:03:46;;;;;;;6.67;4.20;;;29.20;52.10;;;;;;6352500;27;20313;-70
2021/07/05 09:07:04;;;;;;;2.33;1.70;;;29.60;52.30;;;;;;6351155;28;20224;-71
2021/07/05 09:10:09;;;;;;;12.20;8.10;;;30.00;51.30;;;;;;6349162;28;20224;-71
2021/07/05 09:13:16;;;;;;;4.07;3.60;;;30.00;52.20;;;;;;6368424;27;20235;-71
2021/07/05 09:16:30;;;;;;;21.43;17.13;;;30.10;52.70;;;;;;6357817;27;20236;-69
2021/07/05 09:19:37;;;;;;;13.97;11.17;;;29.80;52.70;;;;;;6352651;28;20225;-69
2021/07/05 09:23:00;;;;;;;28.37;22.77;;;30.10;52.20;;;;;;6347081;28;20724;-68
2021/07/05 09:26:03;;;;;;;3.75;3.45;;;30.40;52.40;;;;;;6375396;27;20232;-76
2021/07/05 09:29:21;;;;;;;24.10;18.77;;;30.70;51.50;;;;;;6346995;27;20228;-71
2021/07/05 09:32:26;;;;;;;2.00;1.80;;;30.60;50.70;;;;;;6326479;28;20222;-72
2021/07/05 09:35:38;;;;;;;2.53;1.77;;;30.90;50.90;;;;;;6336397;27;20228;-69
2021/07/05 09:38:42;;;;;;;2.20;1.92;;;31.20;50.10;;;;;;6350868;27;20232;-69
2021/07/05 09:41:46;;;;;;;4.28;1.90;;;31.50;49.60;;;;;;6351024;27;20562;-69
2021/07/05 09:44:49;;;;;;;7.82;3.50;;;31.40;49.60;;;;;;6351011;27;20232;-69
2021/07/05 09:48:14;;;;;;;2.47;1.85;;;31.40;48.90;;;;;;6349181;27;20247;-70
2021/07/05 09:51:20;;;;;;;6.40;3.38;;;31.50;49.30;;;;;;6347681;27;20228;-72
2021/07/05 09:54:25;;;;;;;2.53;1.80;;;31.20;49.50;;;;;;6343107;28;20225;-70
2021/07/05 09:57:40;;;;;;;1.92;1.67;;;31.00;48.70;;;;;;6349060;27;20224;-71
2021/07/05 10:00:44;;;;;;;2.42;1.13;;;30.90;48.70;;;;;;6349255;27;20236;-70
2021/07/05 10:03:47;;;;;;;2.83;1.60;;;30.80;48.10;;;;;;6349559;28;20220;-69
2021/07/05 10:06:52;;;;;;;1.50;1.30;;;30.70;48.90;;;;;;6349627;27;20221;-69
2021/07/05 10:09:56;;;;;;;2.00;1.70;;;30.50;49.30;;;;;;6350298;27;20270;-69
2021/07/05 10:13:00;;;;;;;3.70;3.30;;;30.40;48.90;;;;;;6350433;27;20370;-70
2021/07/05 10:16:06;;;;;;;4.00;3.53;;;30.40;49.00;;;;;;6350460;28;20221;-70
2021/07/05 10:19:14;;;;;;;8.30;6.50;;;30.50;48.40;;;;;;6346951;27;20232;-70
2021/07/05 10:22:19;;;;;;;11.70;7.33;;;30.50;48.20;;;;;;6347364;27;20585;-70
2021/07/05 10:25:23;;;;;;;15.87;14.30;;;30.70;48.00;;;;;;6349811;27;20236;-70
2021/07/05 10:28:26;;;;;;;25.43;23.10;;;30.80;48.00;;;;;;6348805;27;20235;-70
2021/07/05 10:31:29;;;;;;;32.90;29.47;;;31.00;48.30;;;;;;6348698;28;20227;-70
2021/07/05 10:34:33;;;;;;;9.60;8.70;;;31.40;48.30;;;;;;6346571;28;20354;-71
2021/07/05 10:37:44;;;;;;;23.35;20.88;;;31.60;47.60;;;;;;6344339;27;20231;-71
2021/07/05 10:40:50;;;;;;;17.05;10.32;;;31.60;46.70;;;;;;6349071;28;20228;-70
2021/07/05 10:43:58;;;;;;;4.68;3.25;;;31.60;46.30;;;;;;6345972;28;20224;-71
2021/07/05 10:47:02;;;;;;;2.00;1.17;;;31.80;46.00;;;;;;6349076;27;20228;-71
2021/07/05 10:50:30;;;;;;;1.98;1.40;;;31.90;44.50;;;;;;6349827;28;20237;-70
2021/07/05 10:53:55;;;;;;;1.55;1.33;;;32.10;44.70;;;;;;6348569;28;20221;-71
2021/07/05 10:56:58;;;;;;;1.63;1.52;;;32.30;45.10;;;;;;6353098;27;20277;-70
2021/07/05 11:00:08;;;;;;;1.45;1.10;;;32.50;44.30;;;;;;6367965;27;20221;-71
2021/07/05 11:03:12;;;;;;;1.83;1.63;;;32.50;43.00;;;;;;6355942;27;20567;-74
2021/07/05 11:06:44;;;;;;;1.98;1.88;;;32.10;43.00;;;;;;6365989;27;20279;-72
2021/07/05 11:09:53;;;;;;;1.40;1.30;;;31.70;44.00;;;;;;6354649;27;20216;-70
2021/07/05 11:12:59;;;;;;;2.58;1.25;;;31.80;43.10;;;;;;6349193;27;20236;-70
2021/07/05 11:16:02;;;;;;;2.83;1.33;;;31.90;44.40;;;;;;6355768;27;20244;-69
2021/07/05 11:19:09;;;;;;;1.75;1.30;;;32.10;45.30;;;;;;6372874;27;20215;-70
2021/07/05 11:22:27;;;;;;;1.55;1.45;;;32.30;43.90;;;;;;6373537;27;20231;-70
2021/07/05 11:25:32;;;;;;;6.80;1.77;;;31.90;44.20;;;;;;6372286;27;20247;-70
2021/07/05 11:28:35;;;;;;;1.60;1.40;;;31.90;43.70;;;;;;6364389;27;20224;-71
2021/07/05 11:31:49;;;;;;;1.85;1.60;;;31.90;44.00;;;;;;6374537;27;20563;-73
2021/07/05 11:34:52;;;;;;;2.00;1.00;;;31.70;43.80;;;;;;6374673;27;20231;-74
2021/07/05 11:37:57;;;;;;;1.63;1.52;;;31.80;44.10;;;;;;6370182;27;20300;-71
2021/07/05 11:41:05;;;;;;;10.55;7.18;;;31.90;44.20;;;;;;6374747;27;20228;-69
2021/07/05 11:44:11;;;;;;;2.10;1.92;;;31.90;44.20;;;;;;6374295;27;20220;-73
2021/07/05 11:47:42;;;;;;;1.63;1.52;;;31.80;43.50;;;;;;6374492;27;20264;-73
2021/07/05 11:50:46;;;;;;;1.77;1.50;;;31.60;44.00;;;;;;6352394;27;20705;-69
2021/07/05 11:53:50;;;;;;;1.50;1.40;;;31.40;43.80;;;;;;6354269;27;20224;-70
2021/07/05 11:56:57;;;;;;;3.40;3.00;;;31.00;44.40;;;;;;6347577;28;20229;-71
2021/07/05 12:00:06;;;;;;;3.53;3.22;;;31.00;45.20;;;;;;6348907;27;20231;-70
2021/07/05 12:03:11;;;;;;;3.45;2.63;;;30.80;45.30;;;;;;6349137;27;20221;-70
2021/07/05 12:06:15;;;;;;;2.50;2.03;;;30.50;46.00;;;;;;6356525;27;20703;-69
2021/07/05 12:09:19;;;;;;;3.07;1.53;;;29.80;46.90;;;;;;6374406;27;20231;-72
2021/07/05 12:12:24;;;;;;;1.43;1.33;;;29.60;47.00;;;;;;6373839;27;20212;-71
2021/07/05 12:15:27;;;;;;;1.90;1.70;;;29.60;47.70;;;;;;6373317;27;20231;-72
2021/07/05 12:18:31;;;;;;;3.70;2.80;;;29.40;50.20;;;;;;6374038;27;20228;-70
2021/07/05 12:21:36;;;;;;;4.33;3.93;;;29.20;55.40;;;;;;6374388;27;20229;-73
2021/07/05 12:24:42;;;;;;;3.73;3.43;;;28.80;58.40;;;;;;6374345;27;20229;-74
2021/07/05 12:27:47;;;;;;;3.47;3.17;;;28.60;59.60;;;;;;6374261;27;20228;-74
2021/07/05 12:30:50;;;;;;;3.87;2.80;;;28.40;60.10;;;;;;6364035;27;20243;-74
2021/07/05 12:33:54;;;;;;;7.60;3.43;;;28.20;60.70;;;;;;6340392;27;20226;-73
2021/07/05 12:36:57;;;;;;;3.50;3.13;;;28.40;60.80;;;;;;6327531;28;20221;-73
2021/07/05 12:40:04;;;;;;;5.03;4.63;;;28.40;60.40;;;;;;6328596;27;20234;-66
2021/07/05 12:43:11;;;;;;;4.40;4.10;;;28.40;61.00;;;;;;6345556;28;20562;-65
2021/07/05 12:46:15;;;;;;;4.33;3.30;;;28.70;60.70;;;;;;6347208;28;20572;-65
2021/07/05 12:49:18;;;;;;;4.07;3.77;;;28.80;59.80;;;;;;6366816;27;20231;-65
2021/07/05 12:52:22;;;;;;;3.70;3.40;;;29.00;59.60;;;;;;6361339;27;20224;-68
2021/07/05 12:55:25;;;;;;;4.10;3.70;;;29.20;59.10;;;;;;6352612;28;20236;-70
2021/07/05 12:58:44;;;;;;;4.10;3.80;;;29.20;59.30;;;;;;6352623;28;20573;-70
2021/07/05 13:01:47;;;;;;;7.70;3.60;;;29.20;59.30;;;;;;6352071;28;20229;-69
2021/07/05 13:05:05;;;;;;;3.50;3.30;;;29.00;59.60;;;;;;6374146;27;20236;-70
2021/07/05 13:08:09;;;;;;;4.60;3.10;;;28.70;60.40;;;;;;6354249;27;20311;-69
2021/07/05 13:11:14;;;;;;;4.33;3.73;;;28.50;61.00;;;;;;6352492;28;20236;-67
2021/07/05 13:14:24;;;;;;;3.93;3.27;;;28.30;62.20;;;;;;6351771;27;20244;-67
2021/07/05 13:17:35;;;;;;;3.67;3.37;;;27.90;63.20;;;;;;6373092;27;20216;-69
2021/07/05 13:20:38;;;;;;;3.57;2.80;;;28.00;62.60;;;;;;6326976;28;20193;-66
2021/07/05 13:23:44;;;;;;;3.67;3.37;;;28.00;62.20;;;;;;6326763;28;20229;-66
2021/07/05 13:26:48;;;;;;;3.93;3.17;;;28.20;60.80;;;;;;6333677;27;20530;-64
2021/07/05 13:29:53;;;;;;;4.57;3.50;;;28.40;61.30;;;;;;6371728;27;20228;-67
2021/07/05 13:32:58;;;;;;;3.43;3.20;;;28.30;61.10;;;;;;6326581;28;20226;-66
2021/07/05 13:36:03;;;;;;;3.20;2.90;;;28.50;60.90;;;;;;6326809;28;20226;-65
2021/07/05 13:39:12;;;;;;;3.63;3.23;;;28.60;60.30;;;;;;6326394;28;20228;-65
2021/07/05 13:42:17;;;;;;;3.37;3.07;;;28.80;59.70;;;;;;6325954;28;20221;-64
2021/07/05 13:45:24;;;;;;;3.03;2.73;;;28.90;59.40;;;;;;6334665;28;20228;-67
2021/07/05 13:48:32;;;;;;;3.83;3.53;;;28.90;58.40;;;;;;6342286;27;20567;-64
2021/07/05 13:51:36;;;;;;;3.63;3.33;;;28.80;58.40;;;;;;6326136;28;20764;-65
2021/07/05 13:54:39;;;;;;;3.30;3.10;;;28.90;59.00;;;;;;6326133;28;20236;-66
2021/07/05 13:57:47;;;;;;;3.70;3.40;;;29.20;59.30;;;;;;6336990;28;20232;-66
2021/07/05 14:00:53;;;;;;;3.13;2.93;;;29.30;58.90;;;;;;6363735;27;20216;-66
2021/07/05 14:03:58;;;;;;;3.90;3.60;;;29.30;58.70;;;;;;6363368;27;20243;-64
2021/07/05 14:07:01;;;;;;;3.80;3.50;;;28.90;59.30;;;;;;6350512;28;20548;-72
2021/07/05 14:10:05;;;;;;;3.93;3.50;;;28.90;59.60;;;;;;6351057;27;20228;-70
2021/07/05 14:13:10;;;;;;;3.40;3.10;;;28.70;61.10;;;;;;6364837;27;20681;-69
2021/07/05 14:16:16;;;;;;;5.10;3.57;;;28.50;60.20;;;;;;6358141;27;20369;-64
2021/07/05 14:19:19;;;;;;;3.70;3.40;;;28.30;61.40;;;;;;6347244;28;20270;-70
2021/07/05 14:22:22;;;;;;;3.53;3.27;;;28.30;61.60;;;;;;6348740;28;20228;-66
2021/07/05 14:25:25;;;;;;;4.37;3.13;;;28.10;59.90;;;;;;6348149;28;20732;-66
2021/07/05 14:28:29;;;;;;;3.33;2.80;;;28.10;61.60;;;;;;6366960;27;20227;-66
2021/07/05 14:31:35;;;;;;;3.53;3.23;;;28.00;62.30;;;;;;6341468;27;20236;-65
2021/07/05 14:34:38;;;;;;;3.87;3.03;;;28.00;61.90;;;;;;6346178;28;20237;-65
2021/07/05 14:37:42;;;;;;;4.17;3.77;;;28.00;62.00;;;;;;6333172;28;20233;-66
2021/07/05 14:40:46;;;;;;;3.07;2.77;;;27.90;62.50;;;;;;6316541;28;20244;-64
2021/07/05 14:43:50;;;;;;;4.07;3.33;;;27.80;62.00;;;;;;6345825;28;20247;-64
2021/07/05 14:46:54;;;;;;;3.20;3.00;;;27.50;63.20;;;;;;6329079;27;20226;-64
2021/07/05 14:49:58;;;;;;;5.83;2.87;;;27.50;62.70;;;;;;6324969;28;20237;-64
2021/07/05 14:53:06;;;;;;;3.50;3.20;;;27.50;63.80;;;;;;6324373;28;20230;-64
2021/07/05 14:56:09;;;;;;;3.30;3.00;;;27.50;64.00;;;;;;6324775;28;20229;-64
2021/07/05 14:59:13;;;;;;;3.97;3.63;;;27.50;63.40;;;;;;6348544;28;20229;-64
2021/07/05 15:02:17;;;;;;;4.00;3.30;;;27.60;63.70;;;;;;6325610;27;20567;-64
2021/07/05 15:05:23;;;;;;;4.23;3.90;;;27.40;63.70;;;;;;6324410;28;20236;-65
2021/07/05 15:08:26;;;;;;;4.17;3.87;;;27.40;64.80;;;;;;6349385;27;20197;-66
2021/07/05 15:11:30;;;;;;;3.53;3.30;;;27.40;65.30;;;;;;6339954;28;20225;-64
2021/07/05 15:14:33;;;;;;;3.70;3.40;;;27.50;64.80;;;;;;6333833;28;20244;-64
2021/07/05 15:17:38;;;;;;;3.57;3.27;;;27.60;63.80;;;;;;6342694;28;20215;-64
2021/07/05 15:20:41;;;;;;;3.57;2.90;;;27.70;63.40;;;;;;6347276;28;20197;-63
2021/07/05 15:23:45;;;;;;;4.93;2.83;;;27.70;63.20;;;;;;6337353;28;20552;-63
2021/07/05 15:26:48;;;;;;;4.03;3.73;;;27.70;62.90;;;;;;6324042;28;20240;-62
2021/07/05 15:29:52;;;;;;;4.90;2.90;;;27.80;63.80;;;;;;6341673;27;20231;-67
2021/07/05 15:32:56;;;;;;;5.27;3.97;;;27.70;64.20;;;;;;6370479;27;20224;-65
2021/07/05 15:36:00;;;;;;;3.60;3.30;;;27.70;63.50;;;;;;6347268;28;20867;-67
2021/07/05 15:39:05;;;;;;;4.97;3.33;;;27.70;63.70;;;;;;6323957;28;20676;-66
2021/07/05 15:42:08;;;;;;;3.83;3.57;;;27.60;63.90;;;;;;6319655;28;20233;-66
2021/07/05 15:45:13;;;;;;;4.10;3.80;;;27.60;65.40;;;;;;6323722;28;20237;-66
2021/07/05 15:48:18;;;;;;;3.83;3.33;;;27.40;66.20;;;;;;6342255;27;20685;-68
2021/07/05 15:51:21;;;;;;;3.60;3.30;;;27.40;66.70;;;;;;6365965;27;20231;-69
2021/07/05 15:54:25;;;;;;;4.20;3.50;;;27.50;65.90;;;;;;6348160;28;20239;-64
2021/07/05 15:57:28;;;;;;;3.57;3.27;;;27.50;66.00;;;;;;6348743;28;20228;-65
2021/07/05 16:00:37;;;;;;;3.50;3.20;;;27.50;65.60;;;;;;6349193;28;20310;-66